createdAt,value
2023-01-11T00:01:51.733Z,0.70
2023-01-11T00:04:20.579Z,0.80
2023-01-11T00:06:48.481Z,0.80
2023-01-11T00:09:17.310Z,0.73
2023-01-11T00:11:45.327Z,1.10
2023-01-11T00:14:13.527Z,0.63
2023-01-11T00:16:41.508Z,0.57
2023-01-11T00:19:10.827Z,0.60
2023-01-11T00:21:38.682Z,0.57
2023-01-11T00:24:07.511Z,0.50
2023-01-11T00:26:35.461Z,0.60
2023-01-11T00:29:03.385Z,0.90
2023-01-11T00:31:31.514Z,0.50
2023-01-11T00:34:00.227Z,0.70
2023-01-11T00:36:29.649Z,0.50
2023-01-11T00:38:57.725Z,0.50
2023-01-11T00:41:42.994Z,0.47
2023-01-11T00:44:29.178Z,0.60
2023-01-11T00:47:14.747Z,0.63
2023-01-11T00:49:43.220Z,0.60
2023-01-11T00:52:12.690Z,0.70
2023-01-11T00:54:42.205Z,0.43
2023-01-11T00:57:10.583Z,0.50
2023-01-11T00:59:40.683Z,0.50
2023-01-11T01:02:09.502Z,0.50
2023-01-11T01:04:37.512Z,0.57
2023-01-11T01:07:05.942Z,0.60
2023-01-11T01:09:35.383Z,0.50
2023-01-11T01:12:03.325Z,0.70
2023-01-11T01:14:30.738Z,0.70
2023-01-11T01:17:00.412Z,0.60
2023-01-11T01:19:29.829Z,0.57
2023-01-11T01:21:59.235Z,0.40
2023-01-11T01:24:28.973Z,0.70
2023-01-11T01:26:59.317Z,0.63
2023-01-11T01:29:27.776Z,0.60
2023-01-11T01:31:55.586Z,0.50
2023-01-11T01:34:23.374Z,0.60
2023-01-11T01:36:51.279Z,0.50
2023-01-11T01:39:19.154Z,0.40
2023-01-11T01:41:47.151Z,0.60
2023-01-11T01:44:55.067Z,0.60
2023-01-11T01:47:28.342Z,0.60
2023-01-11T01:49:57.941Z,0.43
2023-01-11T01:52:29.275Z,0.67
2023-01-11T01:55:01.263Z,0.60
2023-01-11T01:57:34.001Z,0.73
2023-01-11T02:00:08.029Z,0.70
2023-01-11T02:02:38.311Z,0.60
2023-01-11T02:05:08.228Z,0.60
2023-01-11T02:07:39.144Z,0.60
2023-01-11T02:10:09.809Z,0.60
2023-01-11T02:12:41.074Z,0.60
2023-01-11T02:15:11.804Z,0.60
2023-01-11T02:17:39.892Z,0.67
2023-01-11T02:20:21.477Z,0.70
2023-01-11T02:23:10.506Z,0.87
2023-01-11T02:26:17.078Z,0.60
2023-01-11T02:28:55.167Z,0.80
2023-01-11T02:31:30.911Z,0.80
2023-01-11T02:34:13.055Z,1.10
2023-01-11T02:36:53.240Z,0.60
2023-01-11T02:39:31.927Z,0.80
2023-01-11T02:42:27.774Z,0.90
2023-01-11T02:45:07.047Z,0.83
2023-01-11T02:47:40.869Z,0.90
2023-01-11T02:50:17.854Z,0.70
2023-01-11T02:52:54.656Z,0.67
2023-01-11T02:55:26.686Z,0.57
2023-01-11T02:57:57.331Z,0.70
2023-01-11T03:00:27.079Z,0.50
2023-01-11T03:03:15.238Z,0.83
2023-01-11T03:05:50.297Z,0.80
2023-01-11T03:08:55.049Z,0.70
2023-01-11T03:11:48.216Z,0.70
2023-01-11T03:14:26.792Z,0.60
2023-01-11T03:17:06.232Z,0.67
2023-01-11T03:19:40.855Z,0.50
2023-01-11T03:22:17.918Z,0.60
2023-01-11T03:24:51.477Z,0.80
2023-01-11T03:27:30.689Z,0.60
2023-01-11T03:30:07.384Z,0.87
2023-01-11T03:32:45.801Z,0.80
2023-01-11T03:35:20.955Z,0.77
2023-01-11T03:37:55.651Z,0.80
2023-01-11T03:40:29.028Z,0.80
2023-01-11T03:43:14.643Z,0.90
2023-01-11T03:45:52.190Z,0.80
2023-01-11T03:48:25.020Z,0.97
2023-01-11T03:50:55.557Z,0.70
2023-01-11T03:53:26.502Z,0.70
2023-01-11T03:55:57.537Z,0.70
2023-01-11T03:58:27.684Z,0.70
2023-01-11T04:00:56.427Z,1.10
2023-01-11T04:03:27.232Z,0.90
2023-01-11T04:05:59.088Z,1.10
2023-01-11T04:08:27.293Z,0.90
2023-01-11T04:10:55.214Z,0.90
2023-01-11T04:13:23.163Z,0.90
2023-01-11T04:15:51.038Z,0.80
2023-01-11T04:18:18.932Z,0.87
2023-01-11T04:20:48.334Z,0.87
2023-01-11T04:23:16.340Z,0.87
2023-01-11T04:25:44.324Z,1.00
2023-01-11T04:28:12.554Z,1.00
2023-01-11T04:30:40.487Z,0.93
2023-01-11T04:33:10.880Z,0.93
2023-01-11T04:35:38.835Z,1.03
2023-01-11T04:38:08.069Z,0.87
2023-01-11T04:40:35.964Z,0.83
2023-01-11T04:43:03.397Z,0.80
2023-01-11T04:45:31.465Z,0.90
2023-01-11T04:47:59.510Z,1.07
2023-01-11T04:50:28.345Z,0.90
2023-01-11T04:52:56.303Z,1.00
2023-01-11T04:55:25.931Z,0.90
2023-01-11T04:57:53.867Z,0.80
2023-01-11T05:00:22.308Z,0.80
2023-01-11T05:02:50.305Z,0.70
2023-01-11T05:05:18.456Z,0.90
2023-01-11T05:07:46.433Z,0.80
2023-01-11T05:10:14.267Z,0.70
2023-01-11T05:12:43.547Z,0.87
2023-01-11T05:15:11.631Z,1.20
2023-01-11T05:17:39.446Z,0.93
2023-01-11T05:20:08.313Z,0.90
2023-01-11T05:22:36.157Z,1.00
2023-01-11T05:25:04.225Z,0.77
2023-01-11T05:27:32.137Z,1.07
2023-01-11T05:30:01.534Z,0.90
2023-01-11T05:32:29.362Z,1.00
2023-01-11T05:34:57.358Z,1.30
2023-01-11T05:37:25.191Z,1.27
2023-01-11T05:39:53.009Z,1.00
2023-01-11T05:42:22.214Z,1.10
2023-01-11T05:45:19.166Z,1.30
2023-01-11T05:47:48.572Z,1.47
2023-01-11T05:50:17.064Z,1.00
2023-01-11T05:52:44.914Z,1.20
2023-01-11T05:55:12.761Z,1.43
2023-01-11T05:57:42.196Z,1.30
2023-01-11T06:00:11.761Z,1.20
2023-01-11T06:02:39.878Z,1.60
2023-01-11T06:05:10.314Z,1.43
2023-01-11T06:07:38.287Z,1.40
2023-01-11T06:10:06.891Z,1.30
2023-01-11T06:12:34.735Z,1.33
2023-01-11T06:15:02.785Z,1.30
2023-01-11T06:17:30.594Z,1.67
2023-01-11T06:19:58.496Z,1.50
2023-01-11T06:22:27.855Z,1.20
2023-01-11T06:24:55.774Z,1.10
2023-01-11T06:27:23.718Z,1.27
2023-01-11T06:29:51.564Z,1.53
2023-01-11T06:32:19.459Z,1.63
2023-01-11T06:34:47.390Z,1.03
2023-01-11T06:37:15.321Z,1.40
2023-01-11T06:39:44.861Z,1.50
2023-01-11T06:42:12.833Z,1.50
2023-01-11T06:44:40.680Z,1.53
2023-01-11T06:47:08.613Z,1.50
2023-01-11T06:49:36.534Z,1.57
2023-01-11T06:52:04.536Z,1.30
2023-01-11T06:54:32.294Z,1.47
2023-01-11T06:57:01.716Z,1.40
2023-01-11T06:59:29.543Z,1.60
2023-01-11T07:01:58.827Z,1.60
2023-01-11T07:04:27.095Z,1.70
2023-01-11T07:06:55.613Z,2.10
2023-01-11T07:09:23.598Z,1.97
2023-01-11T07:11:51.792Z,2.53
2023-01-11T07:14:22.111Z,2.47
2023-01-11T07:16:50.002Z,3.63
2023-01-11T07:19:18.651Z,2.87
2023-01-11T07:21:46.653Z,2.80
2023-01-11T07:24:14.567Z,2.40
2023-01-11T07:26:43.243Z,2.50
2023-01-11T07:29:11.997Z,2.27
2023-01-11T07:31:41.562Z,2.30
2023-01-11T07:34:10.506Z,1.40
2023-01-11T07:36:39.675Z,1.77
2023-01-11T07:39:08.780Z,1.73
2023-01-11T07:41:54.105Z,1.40
2023-01-11T07:44:22.426Z,1.50
2023-01-11T07:46:52.061Z,2.13
2023-01-11T07:49:20.079Z,2.20
2023-01-11T07:51:48.253Z,2.20
2023-01-11T07:54:16.257Z,2.13
2023-01-11T07:56:44.300Z,2.20
2023-01-11T07:59:12.301Z,2.40
2023-01-11T08:01:40.175Z,2.30
2023-01-11T08:04:12.089Z,1.90
2023-01-11T08:06:40.387Z,2.33
2023-01-11T08:09:10.004Z,2.53
2023-01-11T08:11:55.262Z,2.50
2023-01-11T08:14:41.901Z,2.27
2023-01-11T08:17:11.532Z,2.37
2023-01-11T08:19:41.423Z,3.27
2023-01-11T08:22:09.874Z,2.60
2023-01-11T08:24:37.798Z,2.53
2023-01-11T08:27:06.036Z,3.23
2023-01-11T08:29:34.073Z,3.10
2023-01-11T08:32:01.870Z,2.60
2023-01-11T08:34:29.850Z,2.60
2023-01-11T08:37:01.957Z,2.57
2023-01-11T08:39:31.048Z,2.70
2023-01-11T08:41:59.471Z,2.27
2023-01-11T08:44:35.142Z,2.30
2023-01-11T08:47:03.557Z,2.20
2023-01-11T08:49:31.583Z,2.27
2023-01-11T08:52:00.887Z,2.60
2023-01-11T08:54:28.910Z,2.43
2023-01-11T08:56:56.971Z,2.67
2023-01-11T08:59:24.926Z,2.47
2023-01-11T09:01:52.827Z,2.33
2023-01-11T09:04:25.208Z,2.30
2023-01-11T09:06:53.784Z,2.53
2023-01-11T09:09:23.185Z,3.00
2023-01-11T09:11:58.747Z,2.77
2023-01-11T09:14:29.055Z,2.57
2023-01-11T09:16:57.904Z,2.60
2023-01-11T09:19:26.274Z,2.57
2023-01-11T09:21:56.817Z,2.73
2023-01-11T09:24:26.202Z,3.53
2023-01-11T09:26:54.206Z,3.13
2023-01-11T09:29:22.172Z,2.90
2023-01-11T09:31:50.255Z,2.90
2023-01-11T09:34:19.211Z,3.33
2023-01-11T09:36:48.913Z,3.60
2023-01-11T09:39:19.618Z,3.40
2023-01-11T09:42:08.851Z,3.43
2023-01-11T09:44:43.025Z,3.40
2023-01-11T09:47:19.561Z,4.20
2023-01-11T09:49:54.552Z,4.77
2023-01-11T09:52:28.948Z,3.77
2023-01-11T09:54:58.756Z,3.57
2023-01-11T09:57:42.525Z,3.23
2023-01-11T10:00:23.794Z,3.80
2023-01-11T10:03:07.726Z,3.03
2023-01-11T10:05:51.416Z,3.50
2023-01-11T10:18:28.621Z,3.10
2023-01-11T10:18:38.577Z,3.80
2023-01-11T10:20:35.554Z,4.77
2023-01-11T10:23:10.266Z,4.43
2023-01-11T10:25:47.999Z,3.53
2023-01-11T10:28:25.250Z,3.57
2023-01-11T10:31:11.893Z,3.60
2023-01-11T10:34:06.357Z,3.33
2023-01-11T10:36:55.710Z,3.47
2023-01-11T10:39:50.607Z,3.33
2023-01-11T10:42:24.009Z,3.27
2023-01-11T10:45:03.314Z,2.40
2023-01-11T10:47:41.453Z,2.83
2023-01-11T10:50:20.711Z,3.07
2023-01-11T10:53:03.572Z,3.20
2023-01-11T10:55:36.353Z,3.23
2023-01-11T10:58:15.302Z,2.73
2023-01-11T11:00:51.739Z,2.23
2023-01-11T11:03:48.465Z,3.37
2023-01-11T11:06:28.671Z,3.03
2023-01-11T11:09:09.682Z,2.60
2023-01-11T11:11:42.797Z,2.73
2023-01-11T11:14:20.946Z,2.80
2023-01-11T11:17:01.026Z,2.90
2023-01-11T11:19:33.386Z,2.90
2023-01-11T11:22:02.367Z,2.80
2023-01-11T11:24:38.409Z,3.37
2023-01-11T11:27:21.947Z,3.27
2023-01-11T11:29:52.814Z,3.00
2023-01-11T11:32:26.737Z,3.47
2023-01-11T11:34:59.038Z,3.70
2023-01-11T11:37:32.880Z,3.23
2023-01-11T11:40:01.658Z,4.20
2023-01-11T11:42:30.684Z,3.90
2023-01-11T11:45:18.632Z,3.80
2023-01-11T11:48:07.035Z,3.63
2023-01-11T11:50:44.658Z,3.80
2023-01-11T11:53:26.732Z,3.57
2023-01-11T11:55:55.865Z,3.57
2023-01-11T11:58:29.983Z,3.50
2023-01-11T12:00:58.761Z,4.07
2023-01-11T12:03:33.246Z,3.60
2023-01-11T12:06:07.503Z,3.70
2023-01-11T12:08:37.583Z,3.40
2023-01-11T12:11:09.168Z,4.00
2023-01-11T12:13:41.954Z,3.63
2023-01-11T12:16:22.131Z,4.20
2023-01-11T12:18:50.995Z,3.60
2023-01-11T12:21:24.645Z,3.77
2023-01-11T12:24:10.732Z,3.67
2023-01-11T12:39:02.844Z,3.50
2023-01-11T12:41:52.706Z,3.07
2023-01-11T12:44:54.212Z,2.80
2023-01-11T12:47:53.400Z,3.43
2023-01-11T12:50:24.956Z,2.73
2023-01-11T12:53:13.570Z,2.90
2023-01-11T12:55:54.826Z,3.17
2023-01-11T12:58:33.023Z,2.60
2023-01-11T13:01:29.331Z,3.20
2023-01-11T13:04:34.420Z,2.37
2023-01-11T13:07:14.120Z,2.80
2023-01-11T13:09:55.059Z,2.83
2023-01-11T13:12:30.685Z,3.00
2023-01-11T13:15:10.619Z,2.80
2023-01-11T13:17:44.075Z,2.80
2023-01-11T13:20:58.549Z,3.03
2023-01-11T13:23:36.135Z,3.27
2023-01-11T13:26:14.243Z,2.60
2023-01-11T13:28:47.547Z,2.60
2023-01-11T13:31:16.569Z,2.20
2023-01-11T13:33:52.782Z,3.03
2023-01-11T13:36:26.271Z,2.87
2023-01-11T13:38:59.259Z,3.10
2023-01-11T13:41:31.271Z,2.70
2023-01-11T13:44:05.133Z,2.70
2023-01-11T13:46:54.848Z,2.90
2023-01-11T13:49:38.718Z,2.70
2023-01-11T13:52:13.470Z,3.20
2023-01-11T13:54:51.236Z,3.27
2023-01-11T13:57:26.012Z,3.60
2023-01-11T14:00:02.864Z,2.70
2023-01-11T14:02:43.862Z,2.70
2023-01-11T14:05:17.633Z,2.50
2023-01-11T14:08:00.696Z,2.20
2023-01-11T14:10:39.908Z,2.87
2023-01-11T14:13:48.181Z,2.50
2023-01-11T14:16:23.408Z,2.60
2023-01-11T14:19:01.540Z,2.60
2023-01-11T14:21:35.222Z,2.70
2023-01-11T14:24:05.743Z,2.90
2023-01-11T14:27:00.602Z,2.50
2023-01-11T14:29:46.983Z,2.70
2023-01-11T14:32:38.317Z,2.23
2023-01-11T14:35:47.957Z,3.13
2023-01-11T14:38:44.655Z,2.13
2023-01-11T14:41:39.657Z,2.00
2023-01-11T14:44:30.644Z,2.60
2023-01-11T14:47:14.239Z,2.50
2023-01-11T14:50:00.480Z,2.77
2023-01-11T14:52:39.713Z,4.63
2023-01-11T14:55:16.904Z,3.97
2023-01-11T14:58:00.735Z,2.60
2023-01-11T15:01:13.865Z,2.37
2023-01-11T15:03:49.066Z,3.10
2023-01-11T15:06:21.495Z,2.90
2023-01-11T15:08:52.564Z,3.20
2023-01-11T15:11:40.921Z,3.07
2023-01-11T15:14:24.942Z,2.43
2023-01-11T15:17:13.160Z,2.40
2023-01-11T15:19:44.745Z,2.40
2023-01-11T15:22:26.778Z,2.70
2023-01-11T15:25:00.822Z,2.60
2023-01-11T15:27:33.652Z,3.00
2023-01-11T15:30:02.325Z,2.40
2023-01-11T15:32:31.788Z,2.70
2023-01-11T15:35:34.179Z,2.73
2023-01-11T15:38:11.264Z,2.90
2023-01-11T15:40:41.916Z,2.40
2023-01-11T15:43:48.795Z,2.93
2023-01-11T15:46:56.895Z,2.80
2023-01-11T15:50:06.269Z,3.90
2023-01-11T15:53:10.654Z,2.97
2023-01-11T15:56:15.942Z,3.20
2023-01-11T15:59:31.616Z,2.87
2023-01-11T16:02:31.944Z,3.60
2023-01-11T16:05:10.306Z,3.60
2023-01-11T16:07:44.100Z,3.90
2023-01-11T16:10:45.519Z,3.10
2023-01-11T16:13:30.818Z,3.03
2023-01-11T16:16:12.233Z,3.50
2023-01-11T16:18:45.199Z,3.43
2023-01-11T16:21:19.263Z,3.73
2023-01-11T16:23:47.449Z,3.70
2023-01-11T16:26:20.799Z,3.10
2023-01-11T16:28:53.161Z,2.63
2023-01-11T16:31:21.412Z,2.73
2023-01-11T16:33:50.188Z,3.27
2023-01-11T16:36:21.166Z,3.73
2023-01-11T16:38:58.009Z,3.30
2023-01-11T16:41:30.335Z,3.37
2023-01-11T16:44:03.301Z,3.17
2023-01-11T16:47:11.970Z,3.13
2023-01-11T16:49:41.031Z,3.40
2023-01-11T16:52:39.215Z,3.03
2023-01-11T16:55:27.284Z,2.60
2023-01-11T16:57:59.458Z,3.03
2023-01-11T17:00:35.889Z,2.33
2023-01-11T17:03:19.445Z,3.13
2023-01-11T17:06:02.540Z,2.60
2023-01-11T17:08:32.993Z,2.23
2023-01-11T17:11:04.060Z,2.17
2023-01-11T17:13:57.702Z,2.10
2023-01-11T17:16:30.405Z,2.20
2023-01-11T17:19:09.446Z,2.10
2023-01-11T17:21:37.501Z,2.47
2023-01-11T17:24:07.827Z,2.23
2023-01-11T17:26:43.642Z,2.97
2023-01-11T17:29:17.376Z,3.33
2023-01-11T17:31:46.932Z,3.50
2023-01-11T17:34:18.751Z,4.50
2023-01-11T17:36:47.679Z,3.73
2023-01-11T17:39:23.047Z,2.97
2023-01-11T17:42:08.832Z,2.80
2023-01-11T17:44:54.565Z,2.70
2023-01-11T17:47:24.795Z,2.60
2023-01-11T17:49:54.040Z,2.87
2023-01-11T17:52:24.513Z,3.90
2023-01-11T17:55:02.852Z,2.30
2023-01-11T17:57:32.461Z,2.43
2023-01-11T18:00:26.061Z,2.60
2023-01-11T18:02:56.258Z,2.77
2023-01-11T18:05:28.784Z,2.90
2023-01-11T18:07:58.977Z,3.20
2023-01-11T18:10:29.746Z,3.43
2023-01-11T18:12:58.948Z,2.37
2023-01-11T18:15:31.314Z,2.77
2023-01-11T18:18:02.555Z,2.77
2023-01-11T18:20:39.559Z,2.10
2023-01-11T18:23:20.276Z,2.70
2023-01-11T18:25:48.672Z,2.40
2023-01-11T18:28:28.640Z,2.43
2023-01-11T18:31:01.623Z,2.50
2023-01-11T18:33:34.554Z,2.60
2023-01-11T18:36:04.705Z,2.37
2023-01-11T18:38:34.361Z,2.93
2023-01-11T18:41:28.527Z,3.17
2023-01-11T18:43:56.858Z,2.40
2023-01-11T18:46:24.949Z,2.17
2023-01-11T18:48:54.575Z,3.07
2023-01-11T18:51:28.077Z,2.90
2023-01-11T18:53:56.292Z,2.20
2023-01-11T18:56:24.455Z,2.40
2023-01-11T18:58:52.292Z,2.70
2023-01-11T19:01:20.330Z,1.97
2023-01-11T19:03:48.973Z,2.37
2023-01-11T19:06:21.073Z,2.37
2023-01-11T19:08:49.071Z,2.00
2023-01-11T19:11:17.095Z,2.83
2023-01-11T19:13:46.802Z,2.70
2023-01-11T19:16:16.086Z,2.20
2023-01-11T19:18:45.261Z,2.47
2023-01-11T19:21:14.494Z,2.83
2023-01-11T19:23:43.919Z,2.80
2023-01-11T19:26:11.847Z,2.17
2023-01-11T19:28:39.712Z,2.80
2023-01-11T19:31:08.815Z,2.77
2023-01-11T19:33:36.715Z,2.87
2023-01-11T19:36:06.952Z,2.90
2023-01-11T19:38:35.243Z,2.13
2023-01-11T19:41:07.481Z,2.30
2023-01-11T19:43:36.018Z,1.97
2023-01-11T19:46:04.619Z,2.23
2023-01-11T19:48:33.113Z,2.27
2023-01-11T19:51:05.692Z,2.80
2023-01-11T19:53:33.907Z,2.13
2023-01-11T19:56:02.199Z,2.33
2023-01-11T19:58:31.693Z,2.67
2023-01-11T20:00:59.604Z,2.20
2023-01-11T20:03:29.734Z,2.33
2023-01-11T20:06:07.618Z,2.63
2023-01-11T20:08:38.521Z,2.50
2023-01-11T20:11:07.809Z,2.50
2023-01-11T20:13:37.073Z,2.10
2023-01-11T20:16:06.763Z,2.23
2023-01-11T20:18:34.911Z,2.40
2023-01-11T20:21:03.018Z,2.30
2023-01-11T20:23:31.607Z,2.23
2023-01-11T20:26:00.468Z,2.87
2023-01-11T20:28:28.814Z,2.80
2023-01-11T20:31:01.283Z,2.47
2023-01-11T20:33:29.936Z,2.50
2023-01-11T20:35:57.855Z,2.30
2023-01-11T20:38:25.909Z,2.20
2023-01-11T20:40:54.384Z,2.30
2023-01-11T20:43:22.214Z,2.60
2023-01-11T20:45:56.315Z,2.30
2023-01-11T20:48:26.080Z,2.93
2023-01-11T20:50:54.099Z,2.37
2023-01-11T20:53:21.986Z,2.30
2023-01-11T20:55:49.933Z,2.30
2023-01-11T20:58:17.957Z,2.53
2023-01-11T21:00:45.905Z,2.57
2023-01-11T21:03:13.928Z,2.30
2023-01-11T21:05:43.213Z,2.20
2023-01-11T21:08:11.136Z,2.20
2023-01-11T21:10:38.964Z,2.10
2023-01-11T21:15:37.141Z,2.10
2023-01-11T21:18:05.552Z,2.13
2023-01-11T21:20:33.403Z,2.57
2023-01-11T21:23:02.933Z,1.90
2023-01-11T21:25:30.826Z,2.10
2023-01-11T21:28:00.026Z,2.07
2023-01-11T21:30:28.163Z,2.30
2023-01-11T21:32:57.267Z,2.37
2023-01-11T21:35:25.277Z,2.50
2023-01-11T21:37:53.186Z,2.07
2023-01-11T21:40:23.127Z,2.20
2023-01-11T21:42:51.124Z,2.17
2023-01-11T21:45:19.443Z,2.03
2023-01-11T21:47:47.487Z,2.43
2023-01-11T21:50:15.438Z,2.10
2023-01-11T21:52:43.504Z,2.27
2023-01-11T21:55:12.109Z,2.23
2023-01-11T21:57:41.466Z,2.73
2023-01-11T22:00:10.959Z,2.23
2023-01-11T22:02:40.058Z,3.33
2023-01-11T22:05:09.439Z,2.40
2023-01-11T22:07:38.245Z,2.23
2023-01-11T22:10:06.706Z,2.07
2023-01-11T22:12:35.263Z,2.67
2023-01-11T22:15:04.868Z,2.83
2023-01-11T22:17:32.774Z,2.87
2023-01-11T22:20:01.171Z,3.70
2023-01-11T22:22:29.276Z,2.73
2023-01-11T22:24:57.103Z,2.80
2023-01-11T22:27:24.996Z,3.43
2023-01-11T22:29:54.733Z,2.30
2023-01-11T22:32:24.400Z,2.83
2023-01-11T22:34:52.378Z,3.73
2023-01-11T22:37:22.411Z,4.10
2023-01-11T22:39:50.274Z,3.73
2023-01-11T22:42:18.203Z,2.77
2023-01-11T22:44:46.209Z,3.63
2023-01-11T22:47:14.039Z,3.00
2023-01-11T22:49:43.525Z,2.80
2023-01-11T22:52:11.475Z,2.33
2023-01-11T22:54:39.509Z,2.33
2023-01-11T22:57:07.475Z,2.70
2023-01-11T22:59:35.624Z,2.73
2023-01-11T23:02:03.573Z,2.40
2023-01-11T23:04:33.093Z,2.77
2023-01-11T23:07:02.426Z,3.30
2023-01-11T23:09:30.290Z,3.97
2023-01-11T23:12:15.615Z,5.10
2023-01-11T23:14:43.414Z,5.67
2023-01-11T23:17:11.620Z,5.30
2023-01-11T23:19:41.654Z,4.70
2023-01-11T23:22:11.107Z,5.33
2023-01-11T23:24:39.885Z,6.03
2023-01-11T23:27:07.882Z,3.90
2023-01-11T23:29:36.353Z,4.10
2023-01-11T23:32:04.585Z,3.70
2023-01-11T23:34:32.474Z,3.83
2023-01-11T23:37:00.346Z,3.83
2023-01-11T23:39:30.664Z,3.90
2023-01-11T23:42:16.070Z,3.27
2023-01-11T23:44:43.976Z,3.23
2023-01-11T23:47:29.877Z,2.30
2023-01-11T23:50:00.256Z,2.30
2023-01-11T23:52:30.168Z,2.43
2023-01-11T23:54:59.586Z,2.57
2023-01-11T23:57:27.941Z,2.63
2023-01-11T23:59:55.890Z,2.30
